Terminal Aerodrome Forecast
Issued by NWS Greer, SC

Home | Current Version | Previous Version | Text Only | Print | Product List | Glossary On
Versions: 1 2 3 4 5 6 7 8 9 10 11
000
FTUS42 KGSP 271134
TAFGSP
TAF
KGSP 271134Z 2712/2812 00000KT P6SM SCT120
     FM272000 20005KT P6SM BKN080
     FM280900 22003KT 6SM -RA BR OVC035
     FM281100 22003KT 6SM -RA BR OVC012=

USA.gov is the U.S. government's official web portal to all federal, state and local government web resources and services.